createdAt,value
2019-06-08T00:00:02.885Z,21.28
2019-06-08T00:02:37.010Z,21.17
2019-06-08T00:05:12.967Z,21.11
2019-06-08T00:07:47.797Z,21.24
2019-06-08T00:10:25.743Z,21.26
2019-06-08T00:13:00.276Z,21.22
2019-06-08T00:15:35.533Z,21.35
2019-06-08T00:18:10.487Z,21.37
2019-06-08T00:20:43.927Z,21.47
2019-06-08T00:23:17.691Z,21.58
2019-06-08T00:25:51.466Z,21.43
2019-06-08T00:28:24.939Z,21.58
2019-06-08T00:31:00.137Z,21.47
2019-06-08T00:33:34.313Z,21.66
2019-06-08T00:36:28.911Z,21.86
2019-06-08T00:39:02.714Z,21.95
2019-06-08T00:41:37.819Z,21.91
2019-06-08T00:44:11.411Z,21.90
2019-06-08T00:46:44.923Z,21.93
2019-06-08T00:49:20.562Z,21.88
2019-06-08T00:51:55.486Z,21.68
2019-06-08T00:54:30.454Z,21.60
2019-06-08T00:57:05.477Z,21.79
2019-06-08T00:59:39.193Z,21.72
2019-06-08T01:02:12.970Z,21.81
2019-06-08T01:04:46.521Z,21.98
2019-06-08T01:07:22.033Z,21.97
2019-06-08T01:09:55.532Z,21.87
2019-06-08T01:12:29.028Z,21.94
2019-06-08T01:15:04.356Z,21.98
2019-06-08T01:17:39.580Z,22.05
2019-06-08T01:20:13.797Z,22.11
2019-06-08T01:22:49.837Z,22.22
2019-06-08T01:25:25.715Z,22.24
2019-06-08T01:28:01.088Z,22.21
2019-06-08T01:30:35.272Z,22.20
2019-06-08T01:33:10.347Z,22.20
2019-06-08T01:35:45.367Z,22.31
2019-06-08T01:38:21.049Z,22.43
2019-06-08T01:40:54.521Z,22.43
2019-06-08T01:43:28.115Z,22.41
2019-06-08T01:48:39.115Z,22.49
2019-06-08T01:51:14.551Z,22.24
2019-06-08T01:53:48.074Z,22.28
2019-06-08T01:56:23.158Z,22.26
2019-06-08T01:58:56.658Z,22.20
2019-06-08T02:01:30.363Z,22.25
2019-06-08T02:04:05.483Z,22.40
2019-06-08T02:06:38.981Z,22.26
2019-06-08T02:09:14.512Z,22.24
2019-06-08T02:11:49.806Z,22.22
2019-06-08T02:14:24.995Z,22.39
2019-06-08T02:17:00.261Z,22.32
2019-06-08T02:19:36.715Z,22.40
2019-06-08T02:22:11.913Z,22.39
2019-06-08T02:24:45.656Z,22.27
2019-06-08T02:27:20.930Z,22.17
2019-06-08T02:29:57.281Z,22.06
2019-06-08T02:32:32.693Z,22.01
2019-06-08T02:35:06.615Z,22.10
2019-06-08T02:37:42.971Z,21.99
2019-06-08T02:40:18.022Z,21.86
2019-06-08T02:42:51.871Z,21.67
2019-06-08T02:45:26.026Z,21.76
2019-06-08T02:47:59.605Z,21.59
2019-06-08T02:50:57.978Z,21.38
2019-06-08T02:53:34.127Z,21.28
2019-06-08T02:56:09.703Z,21.26
2019-06-08T02:58:46.514Z,21.23
2019-06-08T03:01:26.000Z,21.33
2019-06-08T03:04:03.719Z,21.17
2019-06-08T03:06:41.155Z,20.94
2019-06-08T03:09:13.974Z,20.94
2019-06-08T03:11:50.482Z,20.89
2019-06-08T03:14:25.929Z,20.83
2019-06-08T03:17:00.768Z,20.73
2019-06-08T03:19:35.665Z,20.65
2019-06-08T03:22:10.954Z,20.64
2019-06-08T03:24:44.124Z,20.49
2019-06-08T03:27:17.707Z,20.35
2019-06-08T03:29:52.845Z,20.40
2019-06-08T03:32:28.078Z,20.23
2019-06-08T03:35:01.783Z,20.10
2019-06-08T03:37:35.760Z,19.71
2019-06-08T03:40:11.684Z,19.60
2019-06-08T03:42:45.636Z,19.69
2019-06-08T03:45:21.667Z,19.54
2019-06-08T03:47:56.593Z,19.31
2019-06-08T03:50:31.398Z,19.08
2019-06-08T03:53:06.276Z,18.85
2019-06-08T03:55:43.048Z,18.52
2019-06-08T03:58:15.989Z,18.53
2019-06-08T04:00:50.833Z,18.27
2019-06-08T04:03:24.677Z,18.20
2019-06-08T04:05:59.378Z,18.10
2019-06-08T04:08:34.336Z,18.11
2019-06-08T04:11:07.996Z,18.05
2019-06-08T04:13:42.047Z,18.05
2019-06-08T04:16:15.609Z,18.05
2019-06-08T04:18:50.309Z,17.99
2019-06-08T04:21:25.580Z,18.16
2019-06-08T04:24:01.078Z,18.08
2019-06-08T04:26:36.236Z,18.03
2019-06-08T04:29:09.770Z,18.29
2019-06-08T04:31:45.921Z,18.40
2019-06-08T04:34:21.328Z,18.37
2019-06-08T04:36:55.812Z,18.37
2019-06-08T04:39:30.970Z,18.22
2019-06-08T04:42:05.951Z,18.17
2019-06-08T04:44:40.473Z,18.03
2019-06-08T04:47:15.485Z,18.04
2019-06-08T04:49:49.241Z,17.93
2019-06-08T04:52:24.489Z,17.91
2019-06-08T04:54:58.148Z,17.95
2019-06-08T04:57:32.946Z,17.75
2019-06-08T05:00:13.178Z,17.73
2019-06-08T05:02:46.978Z,17.86
2019-06-08T05:05:22.271Z,17.90
2019-06-08T05:07:55.967Z,17.92
2019-06-08T05:10:29.689Z,17.74
2019-06-08T05:13:03.452Z,17.73
2019-06-08T05:15:39.123Z,17.54
2019-06-08T05:18:12.671Z,17.62
2019-06-08T05:20:48.900Z,17.73
2019-06-08T05:23:25.057Z,17.64
2019-06-08T05:25:59.645Z,17.73
2019-06-08T05:28:33.283Z,17.62
2019-06-08T05:31:06.880Z,17.56
2019-06-08T05:33:41.313Z,17.50
2019-06-08T05:36:16.849Z,17.48
2019-06-08T05:38:50.467Z,17.49
2019-06-08T05:41:24.442Z,17.38
2019-06-08T05:43:58.118Z,17.19
2019-06-08T05:46:31.724Z,17.23
2019-06-08T05:49:05.516Z,17.27
2019-06-08T05:51:39.896Z,17.10
2019-06-08T05:54:15.261Z,16.98
2019-06-08T05:56:50.253Z,16.91
2019-06-08T05:59:23.743Z,17.13
2019-06-08T06:01:57.541Z,17.00
2019-06-08T06:04:32.722Z,17.11
2019-06-08T06:07:07.993Z,16.85
2019-06-08T06:09:45.131Z,16.98
2019-06-08T06:12:19.484Z,17.04
2019-06-08T06:14:53.252Z,17.15
2019-06-08T06:17:26.726Z,17.14
2019-06-08T06:20:01.774Z,17.36
2019-06-08T06:22:35.357Z,17.40
2019-06-08T06:25:14.425Z,17.36
2019-06-08T06:27:49.632Z,17.41
2019-06-08T06:30:24.793Z,17.41
2019-06-08T06:32:58.178Z,17.35
2019-06-08T06:35:33.434Z,17.38
2019-06-08T06:38:08.995Z,17.48
2019-06-08T06:40:42.380Z,17.65
2019-06-08T06:43:18.728Z,17.76
2019-06-08T06:45:52.265Z,17.59
2019-06-08T06:48:27.896Z,17.59
2019-06-08T06:51:01.728Z,17.63
2019-06-08T06:53:36.134Z,17.59
2019-06-08T06:58:47.289Z,17.78
2019-06-08T07:01:20.986Z,17.91
2019-06-08T07:03:56.081Z,17.94
2019-06-08T07:06:29.680Z,17.96
2019-06-08T07:09:04.947Z,18.04
2019-06-08T07:11:38.469Z,18.02
2019-06-08T07:14:12.063Z,18.33
2019-06-08T07:16:46.380Z,18.49
2019-06-08T07:19:19.947Z,18.51
2019-06-08T07:21:54.710Z,18.72
2019-06-08T07:24:29.476Z,19.03
2019-06-08T07:27:22.800Z,19.53
2019-06-08T07:29:56.825Z,19.81
2019-06-08T07:32:34.704Z,20.01
2019-06-08T07:35:09.604Z,19.96
2019-06-08T07:37:44.738Z,19.86
2019-06-08T07:40:37.959Z,20.05
2019-06-08T07:43:13.120Z,19.95
2019-06-08T07:45:47.833Z,19.78
2019-06-08T07:48:21.843Z,19.72
2019-06-08T07:50:56.452Z,19.50
2019-06-08T07:53:31.911Z,19.48
2019-06-08T07:56:07.243Z,19.49
2019-06-08T07:58:41.697Z,19.44
2019-06-08T08:01:17.757Z,19.29
2019-06-08T08:03:54.120Z,19.48
2019-06-08T08:06:30.545Z,19.88
2019-06-08T08:09:06.430Z,19.98
2019-06-08T08:11:41.658Z,19.99
2019-06-08T08:14:16.675Z,20.32
2019-06-08T08:16:55.510Z,20.27
2019-06-08T08:19:29.843Z,20.39
2019-06-08T08:22:19.668Z,20.18
2019-06-08T08:24:43.064Z,20.46
2019-06-08T08:27:18.240Z,20.47
2019-06-08T08:29:53.411Z,20.40
2019-06-08T08:32:28.308Z,20.43
2019-06-08T08:35:03.389Z,20.64
2019-06-08T08:37:39.335Z,20.45
2019-06-08T08:40:14.570Z,20.41
2019-06-08T08:42:49.729Z,20.44
2019-06-08T08:45:27.473Z,20.39
2019-06-08T08:48:14.419Z,20.42
2019-06-08T08:50:35.125Z,20.44
2019-06-08T08:53:10.652Z,20.38
2019-06-08T08:55:48.134Z,20.36
2019-06-08T08:58:24.255Z,20.28
2019-06-08T09:01:03.937Z,20.23
2019-06-08T09:03:39.920Z,20.10
2019-06-08T09:06:18.108Z,20.22
2019-06-08T09:08:55.639Z,20.12
2019-06-08T09:11:32.829Z,20.17
2019-06-08T09:14:13.694Z,20.15
2019-06-08T09:16:44.750Z,20.20
2019-06-08T09:19:21.005Z,20.26
2019-06-08T09:21:56.005Z,20.17
2019-06-08T09:24:29.334Z,20.12
2019-06-08T09:27:04.694Z,20.16
2019-06-08T09:29:38.849Z,20.10
2019-06-08T09:32:18.296Z,19.81
2019-06-08T09:35:05.292Z,19.95
2019-06-08T09:37:42.296Z,19.89
2019-06-08T09:40:18.374Z,19.80
2019-06-08T09:43:01.040Z,19.77
2019-06-08T09:45:38.045Z,19.74
2019-06-08T09:48:18.049Z,19.65
2019-06-08T09:50:50.703Z,19.72
2019-06-08T09:53:37.141Z,19.67
2019-06-08T09:56:11.721Z,19.64
2019-06-08T09:58:51.150Z,19.65
2019-06-08T10:01:22.391Z,19.69
2019-06-08T10:04:02.369Z,19.64
2019-06-08T10:06:40.499Z,19.69
2019-06-08T10:09:18.477Z,19.65
2019-06-08T10:11:54.169Z,19.60
2019-06-08T10:14:29.148Z,19.49
2019-06-08T10:17:03.985Z,19.52
2019-06-08T10:19:39.329Z,19.47
2019-06-08T10:22:12.929Z,19.50
2019-06-08T10:24:49.003Z,19.45
2019-06-08T10:27:23.178Z,19.52
2019-06-08T10:30:02.850Z,19.42
2019-06-08T10:32:50.417Z,19.36
2019-06-08T10:35:21.936Z,19.31
2019-06-08T10:37:57.506Z,19.34
2019-06-08T10:40:31.836Z,19.36
2019-06-08T10:43:08.953Z,19.37
2019-06-08T10:46:06.812Z,19.42
2019-06-08T10:48:37.754Z,19.40
2019-06-08T10:51:13.335Z,19.34
2019-06-08T10:53:52.565Z,19.30
2019-06-08T10:56:31.102Z,19.27
2019-06-08T10:59:06.986Z,19.27
2019-06-08T11:01:43.137Z,19.26
2019-06-08T11:04:19.012Z,19.26
2019-06-08T11:07:03.384Z,19.24
2019-06-08T11:09:36.317Z,19.16
2019-06-08T11:12:15.195Z,19.17
2019-06-08T11:14:51.603Z,19.16
2019-06-08T11:17:30.183Z,19.16
2019-06-08T11:20:06.007Z,19.20
2019-06-08T11:22:38.980Z,19.06
2019-06-08T11:25:16.388Z,19.12
2019-06-08T11:27:49.000Z,19.09
2019-06-08T11:30:28.074Z,19.07
2019-06-08T11:33:01.731Z,19.12
2019-06-08T11:35:38.386Z,18.94
2019-06-08T11:38:13.523Z,18.88
2019-06-08T11:40:48.547Z,18.78
2019-06-08T11:43:23.594Z,18.82
2019-06-08T11:46:00.442Z,18.68
2019-06-08T11:48:38.021Z,18.69
2019-06-08T11:51:11.669Z,18.64
2019-06-08T11:53:44.473Z,18.64
2019-06-08T11:56:18.625Z,18.59
2019-06-08T11:58:54.037Z,18.56
2019-06-08T12:01:27.730Z,18.67
2019-06-08T12:04:03.596Z,18.68
2019-06-08T12:06:45.116Z,18.72
2019-06-08T12:09:22.412Z,18.77
2019-06-08T12:11:58.104Z,18.81
2019-06-08T12:14:33.728Z,18.82
2019-06-08T12:17:12.455Z,18.87
2019-06-08T12:19:43.331Z,18.94
2019-06-08T12:22:18.078Z,18.85
2019-06-08T12:24:54.635Z,18.87
2019-06-08T12:27:36.141Z,18.91
2019-06-08T12:30:08.777Z,18.95
2019-06-08T12:32:39.284Z,18.91
2019-06-08T12:35:13.853Z,18.81
2019-06-08T12:37:51.485Z,18.74
2019-06-08T12:40:23.488Z,18.82
2019-06-08T12:42:59.496Z,18.78
2019-06-08T12:45:33.952Z,18.82
2019-06-08T12:48:14.627Z,18.85
2019-06-08T12:50:47.838Z,18.90
2019-06-08T12:53:22.932Z,18.74
2019-06-08T12:55:57.919Z,18.71
2019-06-08T12:58:33.006Z,18.70
2019-06-08T13:01:08.205Z,18.67
2019-06-08T13:03:42.739Z,18.68
2019-06-08T13:06:18.298Z,18.58
2019-06-08T13:08:52.113Z,18.57
2019-06-08T13:11:28.059Z,18.55
2019-06-08T13:14:02.076Z,18.59
2019-06-08T13:16:38.211Z,18.64
2019-06-08T13:19:14.353Z,18.59
2019-06-08T13:21:49.092Z,18.68
2019-06-08T13:24:24.457Z,18.76
2019-06-08T13:26:59.330Z,18.80
2019-06-08T13:29:32.657Z,18.66
2019-06-08T13:32:07.885Z,18.69
2019-06-08T13:34:42.194Z,18.49
2019-06-08T13:37:19.302Z,18.54
2019-06-08T13:39:59.579Z,18.69
2019-06-08T13:42:33.004Z,18.50
2019-06-08T13:45:22.143Z,18.45
2019-06-08T13:47:58.526Z,18.49
2019-06-08T13:50:39.201Z,18.25
2019-06-08T13:53:26.712Z,18.27
2019-06-08T13:55:56.899Z,18.33
2019-06-08T13:58:33.336Z,18.46
2019-06-08T14:01:10.013Z,18.29
2019-06-08T14:03:45.179Z,18.34
2019-06-08T14:06:21.679Z,18.25
2019-06-08T14:08:58.003Z,18.08
2019-06-08T14:14:29.054Z,18.08
2019-06-08T14:17:03.106Z,18.09
2019-06-08T14:19:38.421Z,18.11
2019-06-08T14:22:11.507Z,18.08
2019-06-08T14:24:44.797Z,18.18
2019-06-08T14:27:19.760Z,18.25
2019-06-08T14:30:13.544Z,18.07
2019-06-08T14:32:47.897Z,18.07
2019-06-08T14:35:24.201Z,18.16
2019-06-08T14:37:59.391Z,18.16
2019-06-08T14:40:34.734Z,18.11
2019-06-08T14:43:10.678Z,17.98
2019-06-08T14:45:43.085Z,17.90
2019-06-08T14:48:18.972Z,17.95
2019-06-08T14:50:52.607Z,17.90
2019-06-08T14:53:26.948Z,17.83
2019-06-08T14:56:08.341Z,17.70
2019-06-08T14:58:44.776Z,17.70
2019-06-08T15:01:22.737Z,17.75
2019-06-08T15:03:58.580Z,17.74
2019-06-08T15:06:34.257Z,17.78
2019-06-08T15:09:08.654Z,17.87
2019-06-08T15:11:42.212Z,17.84
2019-06-08T15:14:21.531Z,17.88
2019-06-08T15:16:55.290Z,17.89
2019-06-08T15:19:30.405Z,17.83
2019-06-08T15:22:03.626Z,17.72
2019-06-08T15:24:38.531Z,17.70
2019-06-08T15:27:12.019Z,17.79
2019-06-08T15:29:48.223Z,17.60
2019-06-08T15:32:22.949Z,17.54
2019-06-08T15:35:00.053Z,17.64
2019-06-08T15:37:33.394Z,17.53
2019-06-08T15:40:09.228Z,17.64
2019-06-08T15:42:44.615Z,17.71
2019-06-08T15:45:22.374Z,17.74
2019-06-08T15:47:58.496Z,17.71
2019-06-08T15:50:30.629Z,17.72
2019-06-08T15:53:08.053Z,17.71
2019-06-08T15:55:41.944Z,17.72
2019-06-08T15:58:18.198Z,17.73
2019-06-08T16:00:55.428Z,17.54
2019-06-08T16:03:29.348Z,17.59
2019-06-08T16:06:04.571Z,17.54
2019-06-08T16:08:39.673Z,17.56
2019-06-08T16:11:13.526Z,17.35
2019-06-08T16:13:48.405Z,17.56
2019-06-08T16:16:25.196Z,17.49
2019-06-08T16:19:00.090Z,17.43
2019-06-08T16:21:34.284Z,17.28
2019-06-08T16:24:09.067Z,17.18
2019-06-08T16:26:52.620Z,17.21
2019-06-08T16:29:20.592Z,17.30
2019-06-08T16:31:55.510Z,17.40
2019-06-08T16:34:29.198Z,17.51
2019-06-08T16:37:02.881Z,17.38
2019-06-08T16:39:36.522Z,17.27
2019-06-08T16:42:11.442Z,17.30
2019-06-08T16:44:44.970Z,17.30
2019-06-08T16:47:20.433Z,17.14
2019-06-08T16:49:55.997Z,17.21
2019-06-08T16:52:30.354Z,17.13
2019-06-08T16:55:04.193Z,17.07
2019-06-08T16:57:39.531Z,17.19
2019-06-08T17:02:47.691Z,17.12
2019-06-08T17:05:23.154Z,17.19
2019-06-08T17:07:56.715Z,17.21
2019-06-08T17:10:30.483Z,17.22
2019-06-08T17:13:04.175Z,17.24
2019-06-08T17:15:40.896Z,17.15
2019-06-08T17:18:14.766Z,17.06
2019-06-08T17:20:49.792Z,17.22
2019-06-08T17:23:25.126Z,17.14
2019-06-08T17:26:00.312Z,17.19
2019-06-08T17:28:34.937Z,17.38
2019-06-08T17:31:09.694Z,17.32
2019-06-08T17:33:43.263Z,17.34
2019-06-08T17:36:16.807Z,17.31
2019-06-08T17:38:51.950Z,17.32
2019-06-08T17:41:26.836Z,17.29
2019-06-08T17:44:02.077Z,17.26
2019-06-08T17:46:39.046Z,17.26
2019-06-08T17:49:13.389Z,17.31
2019-06-08T17:51:48.262Z,17.34
2019-06-08T17:54:22.845Z,17.35
2019-06-08T17:56:56.430Z,17.32
2019-06-08T17:59:30.144Z,17.25
2019-06-08T18:02:08.043Z,17.35
2019-06-08T18:04:42.533Z,17.26
2019-06-08T18:07:17.132Z,17.36
2019-06-08T18:09:51.246Z,17.43
2019-06-08T18:12:27.134Z,17.40
2019-06-08T18:15:02.416Z,17.48
2019-06-08T18:17:39.117Z,17.36
2019-06-08T18:20:17.520Z,17.32
2019-06-08T18:22:50.327Z,17.27
2019-06-08T18:25:30.336Z,17.26
2019-06-08T18:28:10.226Z,17.34
2019-06-08T18:30:42.917Z,17.32
2019-06-08T18:33:18.062Z,17.33
2019-06-08T18:35:53.001Z,17.27
2019-06-08T18:38:27.801Z,17.10
2019-06-08T18:41:01.365Z,16.86
2019-06-08T18:43:35.088Z,16.90
2019-06-08T18:46:11.663Z,16.92
2019-06-08T18:48:49.206Z,16.83
2019-06-08T18:51:22.095Z,16.86
2019-06-08T18:54:08.521Z,16.68
2019-06-08T18:56:32.210Z,16.70
2019-06-08T18:59:07.597Z,16.64
2019-06-08T19:01:41.605Z,16.78
2019-06-08T19:04:16.652Z,16.94
2019-06-08T19:06:51.986Z,16.79
2019-06-08T19:09:27.103Z,16.85
2019-06-08T19:12:00.710Z,16.75
2019-06-08T19:14:37.812Z,16.83
2019-06-08T19:17:12.572Z,16.69
2019-06-08T19:19:51.906Z,16.62
2019-06-08T19:22:21.767Z,16.67
2019-06-08T19:24:55.276Z,16.63
2019-06-08T19:27:28.808Z,16.71
2019-06-08T19:30:02.317Z,16.86
2019-06-08T19:32:37.665Z,16.79
2019-06-08T19:35:11.804Z,16.75
2019-06-08T19:37:48.122Z,16.63
2019-06-08T19:40:21.893Z,16.45
2019-06-08T19:42:59.996Z,16.51
2019-06-08T19:45:31.686Z,16.63
2019-06-08T19:48:08.325Z,16.68
2019-06-08T19:50:42.860Z,16.58
2019-06-08T19:53:18.379Z,16.59
2019-06-08T19:55:54.062Z,16.62
2019-06-08T19:58:29.093Z,16.59
2019-06-08T20:01:03.970Z,16.49
2019-06-08T20:03:39.005Z,16.33
2019-06-08T20:06:14.381Z,16.42
2019-06-08T20:08:50.201Z,16.40
2019-06-08T20:11:24.617Z,16.37
2019-06-08T20:13:58.697Z,16.40
2019-06-08T20:16:34.037Z,16.41
2019-06-08T20:19:08.466Z,16.11
2019-06-08T20:21:42.825Z,16.28
2019-06-08T20:24:18.302Z,16.31
2019-06-08T20:26:53.419Z,16.25
2019-06-08T20:29:28.229Z,16.07
2019-06-08T20:32:02.428Z,15.96
2019-06-08T20:34:38.118Z,16.04
2019-06-08T20:37:11.909Z,16.22
2019-06-08T20:39:59.613Z,16.20
2019-06-08T20:42:20.334Z,16.22
2019-06-08T20:44:53.844Z,16.30
2019-06-08T20:47:28.637Z,15.98
2019-06-08T20:50:02.034Z,16.12
2019-06-08T20:52:37.809Z,16.14
2019-06-08T20:55:12.709Z,16.09
2019-06-08T20:57:48.170Z,16.28
2019-06-08T21:00:22.903Z,16.32
2019-06-08T21:03:02.552Z,16.21
2019-06-08T21:05:32.406Z,16.24
2019-06-08T21:08:25.388Z,16.20
2019-06-08T21:10:59.340Z,16.20
2019-06-08T21:13:34.650Z,16.23
2019-06-08T21:16:08.712Z,16.39
2019-06-08T21:18:44.696Z,16.27
2019-06-08T21:21:20.157Z,16.20
2019-06-08T21:24:00.543Z,16.19
2019-06-08T21:26:32.164Z,16.18
2019-06-08T21:29:08.076Z,16.03
2019-06-08T21:31:42.039Z,16.16
2019-06-08T21:34:18.167Z,16.20
2019-06-08T21:36:56.470Z,16.29
2019-06-08T21:39:31.165Z,16.35
2019-06-08T21:42:07.740Z,16.34
2019-06-08T21:44:41.729Z,16.31
2019-06-08T21:47:15.604Z,16.30
2019-06-08T21:49:51.654Z,16.50
2019-06-08T21:52:27.994Z,16.43
2019-06-08T21:55:03.484Z,16.57
2019-06-08T21:57:38.532Z,16.57
2019-06-08T22:00:34.835Z,16.63
2019-06-08T22:02:49.508Z,16.46
2019-06-08T22:05:23.619Z,16.54
2019-06-08T22:08:00.021Z,16.68
2019-06-08T22:10:33.722Z,16.73
2019-06-08T22:13:08.626Z,16.73
2019-06-08T22:15:44.090Z,16.75
2019-06-08T22:18:18.455Z,16.75
2019-06-08T22:20:53.161Z,16.76
2019-06-08T22:23:28.857Z,16.80
2019-06-08T22:26:04.086Z,16.91
2019-06-08T22:28:39.883Z,16.78
2019-06-08T22:31:17.059Z,16.75
2019-06-08T22:33:54.233Z,16.69
2019-06-08T22:36:28.505Z,16.61
2019-06-08T22:39:03.901Z,16.87
2019-06-08T22:41:39.772Z,17.01
2019-06-08T22:44:14.019Z,17.11
2019-06-08T22:46:49.539Z,17.10
2019-06-08T22:49:44.192Z,17.30
2019-06-08T22:52:18.607Z,17.46
2019-06-08T22:54:55.634Z,17.50
2019-06-08T22:57:28.837Z,17.56
2019-06-08T23:00:12.416Z,17.58
2019-06-08T23:02:38.379Z,17.71
2019-06-08T23:05:12.515Z,17.65
2019-06-08T23:07:48.778Z,17.83
2019-06-08T23:10:22.345Z,18.01
2019-06-08T23:12:59.465Z,17.86
2019-06-08T23:15:33.972Z,18.15
2019-06-08T23:18:09.397Z,18.26
2019-06-08T23:20:42.631Z,18.31
2019-06-08T23:23:17.879Z,18.16
2019-06-08T23:25:52.855Z,18.28
2019-06-08T23:28:28.238Z,18.35
2019-06-08T23:31:13.694Z,18.52
2019-06-08T23:33:39.667Z,18.43
2019-06-08T23:38:49.449Z,18.85
2019-06-08T23:41:23.193Z,18.83
2019-06-08T23:43:59.425Z,19.20
2019-06-08T23:46:32.913Z,19.26
2019-06-08T23:49:08.997Z,19.40
2019-06-08T23:51:43.977Z,19.66
2019-06-08T23:54:18.966Z,19.81
2019-06-08T23:56:53.798Z,19.60
2019-06-08T23:59:28.481Z,19.77
